sensor_id;sensor_type;location;lat;lon;timestamp;temperature;humidity
79716;DHT22;69209;51.420;5.400;2023-04-24T00:00:33;15.40;88.60
79716;DHT22;69209;51.420;5.400;2023-04-24T00:02:59;15.40;88.60
79716;DHT22;69209;51.420;5.400;2023-04-24T00:05:24;15.40;88.50
79716;DHT22;69209;51.420;5.400;2023-04-24T00:07:50;15.40;88.50
79716;DHT22;69209;51.420;5.400;2023-04-24T00:10:19;15.40;88.60
79716;DHT22;69209;51.420;5.400;2023-04-24T00:12:45;15.40;88.70
79716;DHT22;69209;51.420;5.400;2023-04-24T00:15:10;15.40;89.40
79716;DHT22;69209;51.420;5.400;2023-04-24T00:17:36;15.40;88.60
79716;DHT22;69209;51.420;5.400;2023-04-24T00:20:01;15.40;88.70
79716;DHT22;69209;51.420;5.400;2023-04-24T00:22:30;15.40;88.70
79716;DHT22;69209;51.420;5.400;2023-04-24T00:24:56;15.40;88.70
79716;DHT22;69209;51.420;5.400;2023-04-24T00:27:21;15.40;88.60
79716;DHT22;69209;51.420;5.400;2023-04-24T00:29:47;15.40;88.70
79716;DHT22;69209;51.420;5.400;2023-04-24T00:32:12;15.30;88.60
79716;DHT22;69209;51.420;5.400;2023-04-24T00:34:38;15.30;88.70
79716;DHT22;69209;51.420;5.400;2023-04-24T00:37:03;15.30;88.70
79716;DHT22;69209;51.420;5.400;2023-04-24T00:39:29;15.30;88.70
79716;DHT22;69209;51.420;5.400;2023-04-24T00:41:55;15.30;88.60
79716;DHT22;69209;51.420;5.400;2023-04-24T00:44:22;15.30;88.70
79716;DHT22;69209;51.420;5.400;2023-04-24T00:46:47;15.30;88.70
79716;DHT22;69209;51.420;5.400;2023-04-24T00:49:20;15.30;88.80
79716;DHT22;69209;51.420;5.400;2023-04-24T00:51:46;15.20;88.80
79716;DHT22;69209;51.420;5.400;2023-04-24T00:54:15;15.20;88.90
79716;DHT22;69209;51.420;5.400;2023-04-24T00:56:41;15.20;88.90
79716;DHT22;69209;51.420;5.400;2023-04-24T00:59:07;15.20;88.90
79716;DHT22;69209;51.420;5.400;2023-04-24T01:01:33;15.20;89.00
79716;DHT22;69209;51.420;5.400;2023-04-24T01:03:58;15.20;88.90
79716;DHT22;69209;51.420;5.400;2023-04-24T01:06:25;15.20;89.00
79716;DHT22;69209;51.420;5.400;2023-04-24T01:08:52;15.20;89.10
79716;DHT22;69209;51.420;5.400;2023-04-24T01:11:18;15.10;89.00
79716;DHT22;69209;51.420;5.400;2023-04-24T01:13:43;15.10;88.90
79716;DHT22;69209;51.420;5.400;2023-04-24T01:16:10;15.10;88.90
79716;DHT22;69209;51.420;5.400;2023-04-24T01:18:35;15.10;89.00
79716;DHT22;69209;51.420;5.400;2023-04-24T01:21:02;15.10;89.00
79716;DHT22;69209;51.420;5.400;2023-04-24T01:23:29;15.10;89.10
79716;DHT22;69209;51.420;5.400;2023-04-24T01:25:54;15.00;89.10
79716;DHT22;69209;51.420;5.400;2023-04-24T01:28:20;15.00;89.10
79716;DHT22;69209;51.420;5.400;2023-04-24T01:30:46;15.00;89.10
79716;DHT22;69209;51.420;5.400;2023-04-24T01:33:11;15.00;89.00
79716;DHT22;69209;51.420;5.400;2023-04-24T01:35:37;15.00;89.10
79716;DHT22;69209;51.420;5.400;2023-04-24T01:38:03;14.90;89.20
79716;DHT22;69209;51.420;5.400;2023-04-24T01:40:30;15.00;89.20
79716;DHT22;69209;51.420;5.400;2023-04-24T01:42:55;14.90;89.30
79716;DHT22;69209;51.420;5.400;2023-04-24T01:45:21;14.90;89.40
79716;DHT22;69209;51.420;5.400;2023-04-24T01:47:46;15.00;89.40
79716;DHT22;69209;51.420;5.400;2023-04-24T01:50:12;14.90;89.30
79716;DHT22;69209;51.420;5.400;2023-04-24T01:52:38;14.90;89.40
79716;DHT22;69209;51.420;5.400;2023-04-24T01:55:04;14.90;89.40
79716;DHT22;69209;51.420;5.400;2023-04-24T01:57:30;14.90;89.40
79716;DHT22;69209;51.420;5.400;2023-04-24T01:59:56;14.90;89.30
79716;DHT22;69209;51.420;5.400;2023-04-24T02:02:22;14.80;89.20
79716;DHT22;69209;51.420;5.400;2023-04-24T02:04:49;14.90;89.30
79716;DHT22;69209;51.420;5.400;2023-04-24T02:07:15;14.80;89.50
79716;DHT22;69209;51.420;5.400;2023-04-24T02:09:40;14.80;89.40
79716;DHT22;69209;51.420;5.400;2023-04-24T02:12:06;14.80;89.30
79716;DHT22;69209;51.420;5.400;2023-04-24T02:14:31;14.80;89.30
79716;DHT22;69209;51.420;5.400;2023-04-24T02:16:57;14.70;89.30
79716;DHT22;69209;51.420;5.400;2023-04-24T02:19:22;14.80;89.40
79716;DHT22;69209;51.420;5.400;2023-04-24T02:21:48;14.70;89.40
79716;DHT22;69209;51.420;5.400;2023-04-24T02:24:13;14.80;89.50
79716;DHT22;69209;51.420;5.400;2023-04-24T02:26:39;14.70;89.40
79716;DHT22;69209;51.420;5.400;2023-04-24T02:29:05;14.70;89.40
79716;DHT22;69209;51.420;5.400;2023-04-24T02:31:30;14.70;89.40
79716;DHT22;69209;51.420;5.400;2023-04-24T02:33:56;14.70;89.40
79716;DHT22;69209;51.420;5.400;2023-04-24T02:36:21;14.70;89.40
79716;DHT22;69209;51.420;5.400;2023-04-24T02:38:47;14.70;89.40
79716;DHT22;69209;51.420;5.400;2023-04-24T02:41:12;14.70;89.50
79716;DHT22;69209;51.420;5.400;2023-04-24T02:43:38;14.70;89.60
79716;DHT22;69209;51.420;5.400;2023-04-24T02:46:03;14.60;89.50
79716;DHT22;69209;51.420;5.400;2023-04-24T02:48:29;14.60;89.50
79716;DHT22;69209;51.420;5.400;2023-04-24T02:50:55;14.60;89.50
79716;DHT22;69209;51.420;5.400;2023-04-24T02:53:20;14.60;89.60
79716;DHT22;69209;51.420;5.400;2023-04-24T02:55:46;14.60;89.60
79716;DHT22;69209;51.420;5.400;2023-04-24T02:58:11;14.60;89.60
79716;DHT22;69209;51.420;5.400;2023-04-24T03:00:38;14.60;89.60
79716;DHT22;69209;51.420;5.400;2023-04-24T03:03:04;14.60;89.60
79716;DHT22;69209;51.420;5.400;2023-04-24T03:05:29;14.60;89.60
79716;DHT22;69209;51.420;5.400;2023-04-24T03:07:56;14.60;89.60
79716;DHT22;69209;51.420;5.400;2023-04-24T03:10:21;14.60;89.60
79716;DHT22;69209;51.420;5.400;2023-04-24T03:12:50;14.50;89.60
79716;DHT22;69209;51.420;5.400;2023-04-24T03:15:15;14.50;89.80
79716;DHT22;69209;51.420;5.400;2023-04-24T03:17:41;14.50;89.60
79716;DHT22;69209;51.420;5.400;2023-04-24T03:20:06;14.50;89.70
79716;DHT22;69209;51.420;5.400;2023-04-24T03:22:33;14.50;89.80
79716;DHT22;69209;51.420;5.400;2023-04-24T03:24:59;14.50;89.70
79716;DHT22;69209;51.420;5.400;2023-04-24T03:27:24;14.50;89.70
79716;DHT22;69209;51.420;5.400;2023-04-24T03:29:50;14.50;89.70
79716;DHT22;69209;51.420;5.400;2023-04-24T03:32:20;14.40;89.60
79716;DHT22;69209;51.420;5.400;2023-04-24T03:34:46;14.50;89.70
79716;DHT22;69209;51.420;5.400;2023-04-24T03:37:11;14.40;89.70
79716;DHT22;69209;51.420;5.400;2023-04-24T03:39:36;14.40;89.70
79716;DHT22;69209;51.420;5.400;2023-04-24T03:42:02;14.40;89.90
79716;DHT22;69209;51.420;5.400;2023-04-24T03:44:28;14.40;90.00
79716;DHT22;69209;51.420;5.400;2023-04-24T03:46:53;14.40;89.90
79716;DHT22;69209;51.420;5.400;2023-04-24T03:49:19;14.40;89.90
79716;DHT22;69209;51.420;5.400;2023-04-24T03:51:44;14.40;89.90
79716;DHT22;69209;51.420;5.400;2023-04-24T03:54:10;14.40;89.80
79716;DHT22;69209;51.420;5.400;2023-04-24T03:56:35;14.40;89.80
79716;DHT22;69209;51.420;5.400;2023-04-24T03:59:01;14.40;89.70
79716;DHT22;69209;51.420;5.400;2023-04-24T04:01:27;14.30;89.70
79716;DHT22;69209;51.420;5.400;2023-04-24T04:03:53;14.30;89.90
79716;DHT22;69209;51.420;5.400;2023-04-24T04:06:19;14.30;89.90
79716;DHT22;69209;51.420;5.400;2023-04-24T04:08:44;14.30;89.90
79716;DHT22;69209;51.420;5.400;2023-04-24T04:11:10;14.30;90.00
79716;DHT22;69209;51.420;5.400;2023-04-24T04:13:35;14.30;89.90
79716;DHT22;69209;51.420;5.400;2023-04-24T04:16:01;14.20;90.00
79716;DHT22;69209;51.420;5.400;2023-04-24T04:18:26;14.30;90.00
79716;DHT22;69209;51.420;5.400;2023-04-24T04:20:52;14.20;89.90
79716;DHT22;69209;51.420;5.400;2023-04-24T04:23:17;14.20;90.00
79716;DHT22;69209;51.420;5.400;2023-04-24T04:25:46;14.20;89.90
79716;DHT22;69209;51.420;5.400;2023-04-24T04:28:12;14.20;90.00
79716;DHT22;69209;51.420;5.400;2023-04-24T04:30:37;14.20;90.00
79716;DHT22;69209;51.420;5.400;2023-04-24T04:33:03;14.20;90.00
79716;DHT22;69209;51.420;5.400;2023-04-24T04:35:29;14.10;90.00
79716;DHT22;69209;51.420;5.400;2023-04-24T04:37:54;14.10;90.00
79716;DHT22;69209;51.420;5.400;2023-04-24T04:40:24;14.10;90.10
79716;DHT22;69209;51.420;5.400;2023-04-24T04:42:50;14.10;90.00
79716;DHT22;69209;51.420;5.400;2023-04-24T04:45:18;14.10;90.10
79716;DHT22;69209;51.420;5.400;2023-04-24T04:47:44;14.10;90.10
79716;DHT22;69209;51.420;5.400;2023-04-24T04:50:09;14.00;90.10
79716;DHT22;69209;51.420;5.400;2023-04-24T04:52:35;14.00;90.10
79716;DHT22;69209;51.420;5.400;2023-04-24T04:55:01;14.00;90.10
79716;DHT22;69209;51.420;5.400;2023-04-24T04:57:27;14.00;90.20
79716;DHT22;69209;51.420;5.400;2023-04-24T04:59:52;14.00;90.20
79716;DHT22;69209;51.420;5.400;2023-04-24T05:02:18;14.00;90.20
79716;DHT22;69209;51.420;5.400;2023-04-24T05:04:44;14.00;90.20
79716;DHT22;69209;51.420;5.400;2023-04-24T05:07:10;14.00;90.10
79716;DHT22;69209;51.420;5.400;2023-04-24T05:09:36;14.00;90.10
79716;DHT22;69209;51.420;5.400;2023-04-24T05:12:01;14.00;90.10
79716;DHT22;69209;51.420;5.400;2023-04-24T05:14:27;14.00;90.10
79716;DHT22;69209;51.420;5.400;2023-04-24T05:16:53;14.00;90.20
79716;DHT22;69209;51.420;5.400;2023-04-24T05:19:18;14.00;90.10
79716;DHT22;69209;51.420;5.400;2023-04-24T05:21:44;14.00;90.10
79716;DHT22;69209;51.420;5.400;2023-04-24T05:24:09;14.00;90.10
79716;DHT22;69209;51.420;5.400;2023-04-24T05:26:35;13.90;90.20
79716;DHT22;69209;51.420;5.400;2023-04-24T05:29:01;13.90;90.20
79716;DHT22;69209;51.420;5.400;2023-04-24T05:31:27;13.90;90.20
79716;DHT22;69209;51.420;5.400;2023-04-24T05:33:52;13.90;90.20
79716;DHT22;69209;51.420;5.400;2023-04-24T05:36:18;13.90;90.20
79716;DHT22;69209;51.420;5.400;2023-04-24T05:38:43;13.90;90.20
79716;DHT22;69209;51.420;5.400;2023-04-24T05:41:08;13.90;90.20
79716;DHT22;69209;51.420;5.400;2023-04-24T05:43:34;13.90;90.30
79716;DHT22;69209;51.420;5.400;2023-04-24T05:46:00;13.90;90.30
79716;DHT22;69209;51.420;5.400;2023-04-24T05:48:25;13.80;90.30
79716;DHT22;69209;51.420;5.400;2023-04-24T05:50:51;13.80;90.30
79716;DHT22;69209;51.420;5.400;2023-04-24T05:53:17;13.80;90.30
79716;DHT22;69209;51.420;5.400;2023-04-24T05:55:43;13.80;90.40
79716;DHT22;69209;51.420;5.400;2023-04-24T05:58:09;13.80;90.30
79716;DHT22;69209;51.420;5.400;2023-04-24T06:00:34;13.80;90.30
79716;DHT22;69209;51.420;5.400;2023-04-24T06:03:00;13.70;90.30
79716;DHT22;69209;51.420;5.400;2023-04-24T06:05:26;13.70;90.30
79716;DHT22;69209;51.420;5.400;2023-04-24T06:07:51;13.70;90.30
79716;DHT22;69209;51.420;5.400;2023-04-24T06:10:17;13.70;90.40
79716;DHT22;69209;51.420;5.400;2023-04-24T06:12:42;13.70;90.40
79716;DHT22;69209;51.420;5.400;2023-04-24T06:15:08;13.60;90.40
79716;DHT22;69209;51.420;5.400;2023-04-24T06:17:34;13.60;90.40
79716;DHT22;69209;51.420;5.400;2023-04-24T06:19:59;13.60;90.30
79716;DHT22;69209;51.420;5.400;2023-04-24T06:22:25;13.60;90.40
79716;DHT22;69209;51.420;5.400;2023-04-24T06:24:51;13.60;90.40
79716;DHT22;69209;51.420;5.400;2023-04-24T06:27:16;13.60;90.40
79716;DHT22;69209;51.420;5.400;2023-04-24T06:29:41;13.60;90.40
79716;DHT22;69209;51.420;5.400;2023-04-24T06:32:07;13.60;90.40
79716;DHT22;69209;51.420;5.400;2023-04-24T06:34:33;13.60;90.50
79716;DHT22;69209;51.420;5.400;2023-04-24T06:36:59;13.50;90.40
79716;DHT22;69209;51.420;5.400;2023-04-24T06:39:25;13.50;90.40
79716;DHT22;69209;51.420;5.400;2023-04-24T06:41:50;13.50;90.40
79716;DHT22;69209;51.420;5.400;2023-04-24T06:44:16;13.50;90.40
79716;DHT22;69209;51.420;5.400;2023-04-24T06:46:42;13.50;90.40
79716;DHT22;69209;51.420;5.400;2023-04-24T06:49:07;13.50;90.40
79716;DHT22;69209;51.420;5.400;2023-04-24T06:51:33;13.50;90.40
79716;DHT22;69209;51.420;5.400;2023-04-24T06:53:58;13.50;90.40
79716;DHT22;69209;51.420;5.400;2023-04-24T06:56:25;13.50;90.40
79716;DHT22;69209;51.420;5.400;2023-04-24T06:58:51;13.50;90.30
79716;DHT22;69209;51.420;5.400;2023-04-24T07:01:16;13.60;90.30
79716;DHT22;69209;51.420;5.400;2023-04-24T07:03:42;13.60;90.30
79716;DHT22;69209;51.420;5.400;2023-04-24T07:06:08;13.50;90.30
79716;DHT22;69209;51.420;5.400;2023-04-24T07:08:35;13.50;90.30
79716;DHT22;69209;51.420;5.400;2023-04-24T07:11:01;13.50;90.30
79716;DHT22;69209;51.420;5.400;2023-04-24T07:13:26;13.50;90.30
79716;DHT22;69209;51.420;5.400;2023-04-24T07:15:53;13.50;90.30
79716;DHT22;69209;51.420;5.400;2023-04-24T07:18:20;13.50;90.30
79716;DHT22;69209;51.420;5.400;2023-04-24T07:20:45;13.50;90.30
79716;DHT22;69209;51.420;5.400;2023-04-24T07:23:11;13.50;90.40
79716;DHT22;69209;51.420;5.400;2023-04-24T07:25:36;13.50;90.70
79716;DHT22;69209;51.420;5.400;2023-04-24T07:28:03;13.50;90.30
79716;DHT22;69209;51.420;5.400;2023-04-24T07:30:30;13.50;90.30
79716;DHT22;69209;51.420;5.400;2023-04-24T07:32:55;13.50;90.30
79716;DHT22;69209;51.420;5.400;2023-04-24T07:35:21;13.50;90.30
79716;DHT22;69209;51.420;5.400;2023-04-24T07:37:47;13.50;90.40
79716;DHT22;69209;51.420;5.400;2023-04-24T07:40:13;13.50;90.30
79716;DHT22;69209;51.420;5.400;2023-04-24T07:42:38;13.50;90.30
79716;DHT22;69209;51.420;5.400;2023-04-24T07:45:04;13.50;90.20
79716;DHT22;69209;51.420;5.400;2023-04-24T07:47:30;13.50;90.20
79716;DHT22;69209;51.420;5.400;2023-04-24T07:49:56;13.60;90.10
79716;DHT22;69209;51.420;5.400;2023-04-24T07:52:23;13.60;90.10
79716;DHT22;69209;51.420;5.400;2023-04-24T07:54:49;13.60;90.10
79716;DHT22;69209;51.420;5.400;2023-04-24T07:57:15;13.60;90.10
79716;DHT22;69209;51.420;5.400;2023-04-24T07:59:41;13.60;90.00
79716;DHT22;69209;51.420;5.400;2023-04-24T08:02:06;13.60;90.00
79716;DHT22;69209;51.420;5.400;2023-04-24T08:04:32;13.60;90.00
79716;DHT22;69209;51.420;5.400;2023-04-24T08:06:57;13.60;90.00
79716;DHT22;69209;51.420;5.400;2023-04-24T08:09:23;13.60;90.10
79716;DHT22;69209;51.420;5.400;2023-04-24T08:11:48;13.60;90.10
79716;DHT22;69209;51.420;5.400;2023-04-24T08:14:14;13.60;90.10
79716;DHT22;69209;51.420;5.400;2023-04-24T08:16:40;13.60;90.10
79716;DHT22;69209;51.420;5.400;2023-04-24T08:19:06;13.60;90.20
79716;DHT22;69209;51.420;5.400;2023-04-24T08:21:31;13.60;90.20
79716;DHT22;69209;51.420;5.400;2023-04-24T08:23:57;13.70;90.20
79716;DHT22;69209;51.420;5.400;2023-04-24T08:26:22;13.60;90.10
79716;DHT22;69209;51.420;5.400;2023-04-24T08:28:48;13.70;90.10
79716;DHT22;69209;51.420;5.400;2023-04-24T08:31:13;13.70;90.10
79716;DHT22;69209;51.420;5.400;2023-04-24T08:33:39;13.80;90.00
79716;DHT22;69209;51.420;5.400;2023-04-24T08:36:06;13.80;90.00
79716;DHT22;69209;51.420;5.400;2023-04-24T08:38:32;13.90;89.90
79716;DHT22;69209;51.420;5.400;2023-04-24T08:40:58;13.90;89.80
79716;DHT22;69209;51.420;5.400;2023-04-24T08:43:24;14.00;89.60
79716;DHT22;69209;51.420;5.400;2023-04-24T08:45:51;14.10;89.40
79716;DHT22;69209;51.420;5.400;2023-04-24T08:48:16;14.20;89.20
79716;DHT22;69209;51.420;5.400;2023-04-24T08:50:43;14.20;89.00
79716;DHT22;69209;51.420;5.400;2023-04-24T08:53:10;14.30;88.70
79716;DHT22;69209;51.420;5.400;2023-04-24T08:55:35;14.50;88.10
79716;DHT22;69209;51.420;5.400;2023-04-24T08:58:02;14.70;87.40
79716;DHT22;69209;51.420;5.400;2023-04-24T09:00:28;14.80;86.90
79716;DHT22;69209;51.420;5.400;2023-04-24T09:02:54;14.80;86.90
79716;DHT22;69209;51.420;5.400;2023-04-24T09:05:20;14.70;87.10
79716;DHT22;69209;51.420;5.400;2023-04-24T09:07:49;14.70;87.80
79716;DHT22;69209;51.420;5.400;2023-04-24T09:10:18;14.60;87.90
79716;DHT22;69209;51.420;5.400;2023-04-24T09:12:44;14.60;87.90
79716;DHT22;69209;51.420;5.400;2023-04-24T09:15:10;14.70;87.90
79716;DHT22;69209;51.420;5.400;2023-04-24T09:17:36;14.70;87.70
79716;DHT22;69209;51.420;5.400;2023-04-24T09:20:02;14.70;87.50
79716;DHT22;69209;51.420;5.400;2023-04-24T09:22:31;14.80;87.10
79716;DHT22;69209;51.420;5.400;2023-04-24T09:25:01;15.00;86.80
79716;DHT22;69209;51.420;5.400;2023-04-24T09:27:28;15.10;86.10
79716;DHT22;69209;51.420;5.400;2023-04-24T09:29:54;15.30;85.60
79716;DHT22;69209;51.420;5.400;2023-04-24T09:32:21;15.50;85.00
79716;DHT22;69209;51.420;5.400;2023-04-24T09:34:47;15.60;84.50
79716;DHT22;69209;51.420;5.400;2023-04-24T09:37:23;15.60;84.30
79716;DHT22;69209;51.420;5.400;2023-04-24T09:40:11;15.50;84.50
79716;DHT22;69209;51.420;5.400;2023-04-24T09:42:37;15.40;85.00
79716;DHT22;69209;51.420;5.400;2023-04-24T09:45:03;15.20;85.30
79716;DHT22;69209;51.420;5.400;2023-04-24T09:47:35;15.10;86.10
79716;DHT22;69209;51.420;5.400;2023-04-24T09:50:01;15.10;86.40
79716;DHT22;69209;51.420;5.400;2023-04-24T09:52:33;15.10;86.30
79716;DHT22;69209;51.420;5.400;2023-04-24T09:54:59;15.10;86.30
79716;DHT22;69209;51.420;5.400;2023-04-24T09:57:24;15.30;85.80
79716;DHT22;69209;51.420;5.400;2023-04-24T09:59:50;15.50;85.20
79716;DHT22;69209;51.420;5.400;2023-04-24T10:02:18;15.70;84.30
79716;DHT22;69209;51.420;5.400;2023-04-24T10:04:53;16.10;82.80
79716;DHT22;69209;51.420;5.400;2023-04-24T10:07:21;16.50;81.70
79716;DHT22;69209;51.420;5.400;2023-04-24T10:09:47;16.60;81.20
79716;DHT22;69209;51.420;5.400;2023-04-24T10:12:13;16.60;81.20
79716;DHT22;69209;51.420;5.400;2023-04-24T10:14:40;16.50;81.20
79716;DHT22;69209;51.420;5.400;2023-04-24T10:17:05;16.40;81.40
79716;DHT22;69209;51.420;5.400;2023-04-24T10:19:31;16.40;81.60
79716;DHT22;69209;51.420;5.400;2023-04-24T10:21:58;16.40;81.50
79716;DHT22;69209;51.420;5.400;2023-04-24T10:24:23;16.50;81.20
79716;DHT22;69209;51.420;5.400;2023-04-24T10:26:49;16.70;80.80
79716;DHT22;69209;51.420;5.400;2023-04-24T10:29:16;16.70;80.50
79716;DHT22;69209;51.420;5.400;2023-04-24T10:31:42;16.80;80.50
79716;DHT22;69209;51.420;5.400;2023-04-24T10:34:10;16.80;80.40
79716;DHT22;69209;51.420;5.400;2023-04-24T10:36:41;16.80;80.40
79716;DHT22;69209;51.420;5.400;2023-04-24T10:39:09;16.80;80.40
79716;DHT22;69209;51.420;5.400;2023-04-24T10:41:37;16.80;80.20
79716;DHT22;69209;51.420;5.400;2023-04-24T10:44:09;16.80;80.30
79716;DHT22;69209;51.420;5.400;2023-04-24T10:46:37;16.70;80.20
79716;DHT22;69209;51.420;5.400;2023-04-24T10:49:04;16.70;80.50
79716;DHT22;69209;51.420;5.400;2023-04-24T10:54:29;16.80;80.10
79716;DHT22;69209;51.420;5.400;2023-04-24T11:02:40;17.10;79.20
79716;DHT22;69209;51.420;5.400;2023-04-24T11:05:08;17.20;79.00
79716;DHT22;69209;51.420;5.400;2023-04-24T11:10:26;17.20;78.80
79716;DHT22;69209;51.420;5.400;2023-04-24T11:12:52;17.30;78.50
79716;DHT22;69209;51.420;5.400;2023-04-24T11:15:17;17.40;78.20
79716;DHT22;69209;51.420;5.400;2023-04-24T11:17:44;17.50;77.90
79716;DHT22;69209;51.420;5.400;2023-04-24T11:20:11;17.60;77.60
79716;DHT22;69209;51.420;5.400;2023-04-24T11:22:37;17.60;77.20
79716;DHT22;69209;51.420;5.400;2023-04-24T11:25:05;17.70;76.80
79716;DHT22;69209;51.420;5.400;2023-04-24T11:27:31;17.80;76.60
79716;DHT22;69209;51.420;5.400;2023-04-24T11:32:26;17.80;76.40
79716;DHT22;69209;51.420;5.400;2023-04-24T11:34:53;17.90;76.20
79716;DHT22;69209;51.420;5.400;2023-04-24T11:37:18;17.90;76.20
79716;DHT22;69209;51.420;5.400;2023-04-24T11:39:44;18.10;76.00
79716;DHT22;69209;51.420;5.400;2023-04-24T11:42:10;18.10;75.70
79716;DHT22;69209;51.420;5.400;2023-04-24T11:44:35;18.10;75.50
79716;DHT22;69209;51.420;5.400;2023-04-24T11:47:07;18.20;75.30
79716;DHT22;69209;51.420;5.400;2023-04-24T11:49:33;18.30;75.20
79716;DHT22;69209;51.420;5.400;2023-04-24T11:52:01;18.30;75.10
79716;DHT22;69209;51.420;5.400;2023-04-24T11:54:27;18.30;75.10
79716;DHT22;69209;51.420;5.400;2023-04-24T11:56:52;18.30;75.20
79716;DHT22;69209;51.420;5.400;2023-04-24T11:59:18;18.40;75.00
79716;DHT22;69209;51.420;5.400;2023-04-24T12:01:46;18.40;74.90
79716;DHT22;69209;51.420;5.400;2023-04-24T12:04:12;18.50;74.60
79716;DHT22;69209;51.420;5.400;2023-04-24T12:06:38;18.60;74.40
79716;DHT22;69209;51.420;5.400;2023-04-24T12:09:04;18.70;74.00
79716;DHT22;69209;51.420;5.400;2023-04-24T12:11:30;18.90;73.40
79716;DHT22;69209;51.420;5.400;2023-04-24T12:13:55;18.90;73.20
79716;DHT22;69209;51.420;5.400;2023-04-24T12:16:21;19.00;72.90
79716;DHT22;69209;51.420;5.400;2023-04-24T12:18:47;19.10;72.30
79716;DHT22;69209;51.420;5.400;2023-04-24T12:21:16;19.20;72.30
79716;DHT22;69209;51.420;5.400;2023-04-24T12:23:44;19.30;72.10
79716;DHT22;69209;51.420;5.400;2023-04-24T12:26:11;19.30;71.70
79716;DHT22;69209;51.420;5.400;2023-04-24T12:28:37;19.30;71.80
79716;DHT22;69209;51.420;5.400;2023-04-24T12:31:02;19.40;71.90
79716;DHT22;69209;51.420;5.400;2023-04-24T12:33:31;19.40;71.60
79716;DHT22;69209;51.420;5.400;2023-04-24T12:35:57;19.40;71.50
79716;DHT22;69209;51.420;5.400;2023-04-24T12:38:24;19.40;71.80
79716;DHT22;69209;51.420;5.400;2023-04-24T12:41:01;19.40;71.70
79716;DHT22;69209;51.420;5.400;2023-04-24T12:43:27;19.40;72.10
79716;DHT22;69209;51.420;5.400;2023-04-24T12:45:52;19.50;71.60
79716;DHT22;69209;51.420;5.400;2023-04-24T12:48:18;19.50;71.30
79716;DHT22;69209;51.420;5.400;2023-04-24T12:50:43;19.60;71.30
79716;DHT22;69209;51.420;5.400;2023-04-24T12:53:09;19.60;71.30
79716;DHT22;69209;51.420;5.400;2023-04-24T12:55:36;19.70;71.40
79716;DHT22;69209;51.420;5.400;2023-04-24T12:58:02;19.70;71.40
79716;DHT22;69209;51.420;5.400;2023-04-24T13:00:28;19.70;71.40
79716;DHT22;69209;51.420;5.400;2023-04-24T13:02:54;19.60;71.70
79716;DHT22;69209;51.420;5.400;2023-04-24T13:05:20;19.60;71.70
79716;DHT22;69209;51.420;5.400;2023-04-24T13:07:45;19.70;71.50
79716;DHT22;69209;51.420;5.400;2023-04-24T13:10:11;19.60;71.30
79716;DHT22;69209;51.420;5.400;2023-04-24T13:12:38;19.70;71.20
79716;DHT22;69209;51.420;5.400;2023-04-24T13:15:04;19.70;71.00
79716;DHT22;69209;51.420;5.400;2023-04-24T13:17:30;19.80;71.20
79716;DHT22;69209;51.420;5.400;2023-04-24T13:19:55;19.80;71.20
79716;DHT22;69209;51.420;5.400;2023-04-24T13:22:21;19.80;70.90
79716;DHT22;69209;51.420;5.400;2023-04-24T13:24:46;19.80;70.90
79716;DHT22;69209;51.420;5.400;2023-04-24T13:27:14;19.80;70.80
79716;DHT22;69209;51.420;5.400;2023-04-24T13:29:39;19.80;70.80
79716;DHT22;69209;51.420;5.400;2023-04-24T13:32:05;19.70;71.10
79716;DHT22;69209;51.420;5.400;2023-04-24T13:34:31;19.60;71.30
79716;DHT22;69209;51.420;5.400;2023-04-24T13:36:57;19.40;71.90
79716;DHT22;69209;51.420;5.400;2023-04-24T13:39:23;19.30;72.30
79716;DHT22;69209;51.420;5.400;2023-04-24T13:41:50;19.10;72.90
79716;DHT22;69209;51.420;5.400;2023-04-24T13:44:16;19.00;73.00
79716;DHT22;69209;51.420;5.400;2023-04-24T13:46:42;18.90;73.20
79716;DHT22;69209;51.420;5.400;2023-04-24T13:49:09;18.90;73.20
79716;DHT22;69209;51.420;5.400;2023-04-24T13:51:35;18.80;73.30
79716;DHT22;69209;51.420;5.400;2023-04-24T13:54:00;18.90;73.10
79716;DHT22;69209;51.420;5.400;2023-04-24T13:56:26;18.90;72.90
79716;DHT22;69209;51.420;5.400;2023-04-24T13:58:52;19.00;72.80
79716;DHT22;69209;51.420;5.400;2023-04-24T14:01:19;19.10;72.50
79716;DHT22;69209;51.420;5.400;2023-04-24T14:03:45;19.10;72.30
79716;DHT22;69209;51.420;5.400;2023-04-24T14:06:10;19.10;72.40
79716;DHT22;69209;51.420;5.400;2023-04-24T14:08:36;19.10;72.70
79716;DHT22;69209;51.420;5.400;2023-04-24T14:11:01;19.10;72.70
79716;DHT22;69209;51.420;5.400;2023-04-24T14:13:28;19.10;72.70
79716;DHT22;69209;51.420;5.400;2023-04-24T14:15:53;19.10;72.50
79716;DHT22;69209;51.420;5.400;2023-04-24T14:18:19;19.10;72.50
79716;DHT22;69209;51.420;5.400;2023-04-24T14:20:44;19.00;72.70
79716;DHT22;69209;51.420;5.400;2023-04-24T14:23:10;18.90;72.90
79716;DHT22;69209;51.420;5.400;2023-04-24T14:25:35;18.80;73.20
79716;DHT22;69209;51.420;5.400;2023-04-24T14:28:01;18.70;73.50
79716;DHT22;69209;51.420;5.400;2023-04-24T14:30:26;18.70;73.40
79716;DHT22;69209;51.420;5.400;2023-04-24T14:32:52;18.70;73.40
79716;DHT22;69209;51.420;5.400;2023-04-24T14:35:17;18.70;73.50
79716;DHT22;69209;51.420;5.400;2023-04-24T14:37:43;18.60;73.60
79716;DHT22;69209;51.420;5.400;2023-04-24T14:40:09;18.50;73.80
79716;DHT22;69209;51.420;5.400;2023-04-24T14:42:34;18.40;74.10
79716;DHT22;69209;51.420;5.400;2023-04-24T14:45:01;18.40;74.40
79716;DHT22;69209;51.420;5.400;2023-04-24T14:47:26;18.30;74.30
79716;DHT22;69209;51.420;5.400;2023-04-24T14:49:52;18.30;74.20
79716;DHT22;69209;51.420;5.400;2023-04-24T14:52:17;18.30;74.20
79716;DHT22;69209;51.420;5.400;2023-04-24T14:54:43;18.30;74.20
79716;DHT22;69209;51.420;5.400;2023-04-24T14:57:09;18.30;74.40
79716;DHT22;69209;51.420;5.400;2023-04-24T14:59:35;18.30;74.30
79716;DHT22;69209;51.420;5.400;2023-04-24T15:02:01;18.30;74.00
79716;DHT22;69209;51.420;5.400;2023-04-24T15:04:27;18.30;73.90
79716;DHT22;69209;51.420;5.400;2023-04-24T15:06:53;18.30;73.90
79716;DHT22;69209;51.420;5.400;2023-04-24T15:09:19;18.30;73.80
79716;DHT22;69209;51.420;5.400;2023-04-24T15:11:45;18.30;74.00
79716;DHT22;69209;51.420;5.400;2023-04-24T15:14:10;18.30;73.80
79716;DHT22;69209;51.420;5.400;2023-04-24T15:16:36;18.30;73.80
79716;DHT22;69209;51.420;5.400;2023-04-24T15:19:03;18.30;73.70
79716;DHT22;69209;51.420;5.400;2023-04-24T15:21:28;18.30;73.80
79716;DHT22;69209;51.420;5.400;2023-04-24T15:23:54;18.20;73.90
79716;DHT22;69209;51.420;5.400;2023-04-24T15:26:20;18.10;74.10
79716;DHT22;69209;51.420;5.400;2023-04-24T15:28:45;18.00;74.40
79716;DHT22;69209;51.420;5.400;2023-04-24T15:31:12;17.90;74.50
79716;DHT22;69209;51.420;5.400;2023-04-24T15:33:37;17.70;74.70
79716;DHT22;69209;51.420;5.400;2023-04-24T15:36:03;17.60;74.80